createdAt,value
2022-09-07T00:00:55.675Z,14.69
2022-09-07T00:03:29.781Z,14.66
2022-09-07T00:06:00.646Z,14.66
2022-09-07T00:08:33.891Z,14.64
2022-09-07T00:11:04.963Z,14.61
2022-09-07T00:13:35.643Z,14.56
2022-09-07T00:16:18.667Z,14.52
2022-09-07T00:18:46.729Z,14.53
2022-09-07T00:21:22.380Z,14.51
2022-09-07T00:24:00.301Z,14.52
2022-09-07T00:26:41.051Z,14.50
2022-09-07T00:29:18.053Z,14.42
2022-09-07T00:31:48.069Z,14.42
2022-09-07T00:34:21.266Z,14.39
2022-09-07T00:37:01.426Z,14.33
2022-09-07T00:39:36.817Z,14.32
2022-09-07T00:42:09.942Z,14.29
2022-09-07T00:44:43.171Z,14.24
2022-09-07T00:47:23.626Z,14.21
2022-09-07T00:50:00.703Z,14.22
2022-09-07T00:52:36.573Z,14.15
2022-09-07T00:55:23.837Z,14.08
2022-09-07T00:57:58.548Z,14.05
2022-09-07T01:00:39.538Z,14.00
2022-09-07T01:03:08.017Z,14.02
2022-09-07T01:06:13.393Z,13.97
2022-09-07T01:08:49.690Z,14.01
2022-09-07T01:11:27.433Z,13.97
2022-09-07T01:14:04.430Z,13.90
2022-09-07T01:16:49.702Z,13.85
2022-09-07T01:19:58.978Z,13.84
2022-09-07T01:23:09.984Z,13.76
2022-09-07T01:25:55.797Z,13.77
2022-09-07T01:28:34.632Z,13.79
2022-09-07T01:31:41.813Z,13.73
2022-09-07T01:34:31.732Z,13.72
2022-09-07T01:37:16.993Z,13.67
2022-09-07T01:40:01.449Z,13.62
2022-09-07T01:42:44.034Z,13.64
2022-09-07T01:45:21.332Z,13.61
2022-09-07T01:48:11.766Z,13.57
2022-09-07T01:50:59.037Z,13.58
2022-09-07T01:53:43.868Z,13.57
2022-09-07T01:56:19.956Z,13.57
2022-09-07T01:58:59.196Z,13.54
2022-09-07T02:01:39.471Z,13.55
2022-09-07T02:04:10.516Z,13.52
2022-09-07T02:07:05.864Z,13.48
2022-09-07T02:10:04.351Z,13.41
2022-09-07T02:13:12.357Z,13.36
2022-09-07T02:15:55.829Z,13.38
2022-09-07T02:18:34.641Z,13.36
2022-09-07T02:21:03.179Z,13.33
2022-09-07T02:23:48.351Z,13.33
2022-09-07T02:26:24.309Z,13.28
2022-09-07T02:29:05.521Z,13.26
2022-09-07T02:31:37.387Z,13.22
2022-09-07T02:34:17.819Z,13.16
2022-09-07T02:36:48.195Z,13.16
2022-09-07T02:39:15.325Z,13.12
2022-09-07T02:41:48.588Z,13.11
2022-09-07T02:44:31.565Z,13.13
2022-09-07T02:47:21.013Z,13.30
2022-09-07T02:50:03.695Z,13.24
2022-09-07T02:53:12.542Z,13.16
2022-09-07T02:56:03.400Z,13.16
2022-09-07T02:58:58.131Z,13.12
2022-09-07T03:01:57.520Z,13.12
2022-09-07T03:04:58.472Z,13.06
2022-09-07T03:07:44.440Z,13.22
2022-09-07T03:10:21.201Z,13.29
2022-09-07T03:12:52.263Z,13.17
2022-09-07T03:15:24.746Z,13.11
2022-09-07T03:17:58.819Z,13.09
2022-09-07T03:20:26.641Z,13.03
2022-09-07T03:22:53.711Z,13.00
2022-09-07T03:25:24.008Z,12.96
2022-09-07T03:27:51.139Z,12.94
2022-09-07T03:30:24.550Z,12.98
2022-09-07T03:32:59.483Z,12.98
2022-09-07T03:35:32.226Z,12.95
2022-09-07T03:37:59.375Z,12.90
2022-09-07T03:40:32.404Z,12.86
2022-09-07T03:43:04.191Z,12.86
2022-09-07T03:45:51.372Z,12.81
2022-09-07T03:48:25.996Z,12.85
2022-09-07T03:51:01.549Z,12.85
2022-09-07T03:53:31.931Z,12.88
2022-09-07T03:56:08.685Z,12.83
2022-09-07T03:58:36.420Z,12.79
2022-09-07T04:01:22.416Z,12.71
2022-09-07T04:04:03.009Z,12.69
2022-09-07T04:06:39.102Z,12.75
2022-09-07T04:09:12.030Z,12.77
2022-09-07T04:11:44.689Z,12.80
2022-09-07T04:14:14.165Z,12.74
2022-09-07T04:16:52.855Z,12.72
2022-09-07T04:19:22.933Z,12.69
2022-09-07T04:21:55.405Z,12.73
2022-09-07T04:24:26.935Z,12.71
2022-09-07T04:26:57.014Z,12.71
2022-09-07T04:29:24.139Z,12.71
2022-09-07T04:31:59.449Z,12.74
2022-09-07T04:34:42.129Z,12.72
2022-09-07T04:37:12.687Z,12.78
2022-09-07T04:39:40.202Z,12.77
2022-09-07T04:42:07.470Z,12.87
2022-09-07T04:44:37.167Z,12.95
2022-09-07T04:47:07.264Z,12.94
2022-09-07T04:49:34.552Z,13.04
2022-09-07T04:52:07.822Z,13.18
2022-09-07T04:54:34.817Z,13.28
2022-09-07T04:57:02.016Z,13.18
2022-09-07T04:59:29.990Z,13.25
2022-09-07T05:02:08.187Z,13.31
2022-09-07T05:04:38.076Z,13.46
2022-09-07T05:07:06.796Z,13.50
2022-09-07T05:09:33.903Z,13.59
2022-09-07T05:12:15.383Z,13.69
2022-09-07T05:14:48.469Z,13.96
2022-09-07T05:17:21.498Z,14.01
2022-09-07T05:19:51.493Z,14.16
2022-09-07T05:22:21.406Z,14.31
2022-09-07T05:24:50.482Z,14.54
2022-09-07T05:27:17.601Z,14.73
2022-09-07T05:30:06.253Z,14.92
2022-09-07T05:32:45.270Z,15.13
2022-09-07T05:35:15.294Z,15.29
2022-09-07T05:37:42.323Z,15.32
2022-09-07T05:40:09.883Z,15.52
2022-09-07T05:42:39.891Z,15.80
2022-09-07T05:45:13.846Z,16.06
2022-09-07T05:47:46.141Z,16.31
2022-09-07T05:50:13.183Z,16.61
2022-09-07T05:52:45.831Z,16.85
2022-09-07T05:55:29.332Z,17.14
2022-09-07T05:57:57.429Z,17.42
2022-09-07T06:00:28.073Z,17.73
2022-09-07T06:03:06.929Z,17.90
2022-09-07T06:05:36.193Z,18.04
2022-09-07T06:08:12.320Z,18.09
2022-09-07T06:13:17.736Z,18.45
2022-09-07T06:15:50.669Z,18.68
2022-09-07T06:18:20.581Z,18.77
2022-09-07T06:20:48.652Z,18.97
2022-09-07T06:23:18.922Z,19.24
2022-09-07T06:25:49.967Z,19.25
2022-09-07T06:28:49.707Z,19.48
2022-09-07T06:31:19.842Z,19.64
2022-09-07T06:33:52.395Z,19.82
2022-09-07T06:36:27.950Z,20.07
2022-09-07T06:38:59.273Z,20.27
2022-09-07T06:44:27.533Z,20.56
2022-09-07T06:49:28.723Z,20.66
2022-09-07T06:51:58.178Z,20.82
2022-09-07T06:57:36.569Z,20.71
2022-09-07T07:00:18.209Z,20.83
2022-09-07T07:02:50.162Z,21.02
2022-09-07T07:05:22.207Z,21.23
2022-09-07T07:07:55.402Z,21.42
2022-09-07T07:10:24.768Z,21.66
2022-09-07T07:12:57.586Z,21.57
2022-09-07T07:15:28.915Z,21.49
2022-09-07T07:18:21.231Z,21.70
2022-09-07T07:20:55.832Z,21.70
2022-09-07T07:23:25.143Z,21.68
2022-09-07T07:26:01.198Z,22.01
2022-09-07T07:31:23.338Z,22.31
2022-09-07T07:33:54.197Z,22.62
2022-09-07T07:36:27.407Z,22.80
2022-09-07T07:44:16.748Z,22.91
2022-09-07T07:46:44.431Z,22.79
2022-09-07T07:49:14.017Z,22.87
2022-09-07T07:54:38.732Z,23.12
2022-09-07T07:57:06.145Z,23.13
2022-09-07T07:59:43.967Z,23.16
2022-09-07T08:04:59.050Z,23.45
2022-09-07T08:07:26.068Z,23.40
2022-09-07T08:09:53.161Z,23.59
2022-09-07T08:12:26.603Z,23.31
2022-09-07T08:14:56.225Z,23.28
2022-09-07T08:17:23.324Z,23.42
2022-09-07T08:19:56.355Z,23.41
2022-09-07T08:22:26.720Z,23.39
2022-09-07T08:24:53.684Z,23.65
2022-09-07T08:27:20.894Z,23.79
2022-09-07T08:29:53.287Z,23.67
2022-09-07T08:32:28.248Z,24.05
2022-09-07T08:35:01.025Z,24.21
2022-09-07T08:37:31.760Z,24.37
2022-09-07T08:40:01.962Z,24.61
2022-09-07T08:42:40.621Z,24.87
2022-09-07T08:45:41.295Z,24.64
2022-09-07T08:48:16.598Z,24.86
2022-09-07T08:51:04.458Z,25.07
2022-09-07T08:53:42.446Z,24.89
2022-09-07T08:56:17.845Z,25.03
2022-09-07T08:58:51.216Z,25.11
2022-09-07T09:07:37.203Z,25.37
2022-09-07T09:10:24.844Z,25.15
2022-09-07T09:13:10.009Z,25.50
2022-09-07T09:16:12.183Z,25.39
2022-09-07T09:18:48.189Z,25.69
2022-09-07T09:21:24.911Z,25.67
2022-09-07T09:23:55.246Z,25.64
2022-09-07T09:26:31.592Z,25.46
2022-09-07T09:29:02.313Z,25.31
2022-09-07T09:31:38.780Z,25.64
2022-09-07T09:34:09.359Z,25.88
2022-09-07T09:36:47.942Z,26.08
2022-09-07T09:39:29.614Z,26.25
2022-09-07T09:42:00.110Z,26.51
2022-09-07T09:44:38.436Z,26.65
2022-09-07T09:50:09.473Z,26.13
2022-09-07T09:52:49.194Z,26.37
2022-09-07T09:55:36.084Z,26.48
2022-09-07T10:03:10.557Z,26.40
2022-09-07T10:04:35.154Z,26.28
2022-09-07T10:07:39.089Z,26.68
2022-09-07T10:10:16.700Z,26.73
2022-09-07T10:12:49.363Z,26.58
2022-09-07T10:15:41.061Z,26.67
2022-09-07T10:18:27.134Z,26.79
2022-09-07T10:21:31.286Z,27.04
2022-09-07T10:24:14.618Z,27.14
2022-09-07T10:26:50.818Z,27.53
2022-09-07T10:29:40.272Z,27.46
2022-09-07T10:32:11.738Z,27.48
2022-09-07T10:35:16.945Z,27.51
2022-09-07T10:38:06.752Z,27.58
2022-09-07T10:40:47.807Z,27.60
2022-09-07T10:43:32.773Z,27.55
2022-09-07T10:46:59.594Z,27.16
2022-09-07T10:49:30.998Z,27.16
2022-09-07T10:52:17.735Z,26.97
2022-09-07T10:55:00.918Z,26.93
2022-09-07T10:57:45.664Z,27.37
2022-09-07T11:00:24.315Z,27.41
2022-09-07T11:03:26.109Z,27.39
2022-09-07T11:06:12.392Z,27.91
2022-09-07T11:12:05.652Z,28.23
2022-09-07T11:14:53.509Z,28.14
2022-09-07T11:17:28.294Z,28.25
2022-09-07T11:21:04.937Z,27.96
2022-09-07T11:23:54.353Z,28.12
2022-09-07T11:26:50.557Z,28.46
2022-09-07T11:30:11.727Z,28.33
2022-09-07T11:33:21.460Z,28.48
2022-09-07T11:36:28.999Z,28.52
2022-09-07T11:39:05.149Z,28.71
2022-09-07T11:41:46.291Z,28.73
2022-09-07T11:44:32.827Z,28.32
2022-09-07T11:47:11.085Z,28.34
2022-09-07T11:49:41.488Z,28.63
2022-09-07T11:52:19.360Z,28.48
2022-09-07T11:54:53.275Z,28.69
2022-09-07T11:57:49.683Z,28.42
2022-09-07T12:00:29.937Z,28.34
2022-09-07T12:03:24.431Z,28.61
2022-09-07T12:06:08.769Z,28.61
2022-09-07T12:08:57.146Z,28.41
2022-09-07T12:11:26.174Z,28.54
2022-09-07T12:14:34.678Z,28.62
2022-09-07T12:17:20.741Z,28.17
2022-09-07T12:20:10.316Z,27.99
2022-09-07T12:22:54.598Z,27.69
2022-09-07T12:25:26.475Z,27.54
2022-09-07T12:27:54.132Z,27.43
2022-09-07T12:30:31.945Z,27.41
2022-09-07T12:33:18.817Z,27.45
2022-09-07T12:35:51.820Z,27.81
2022-09-07T12:38:45.867Z,27.66
2022-09-07T12:41:26.632Z,27.62
2022-09-07T12:44:07.074Z,27.57
2022-09-07T12:46:35.591Z,27.45
2022-09-07T12:49:19.323Z,27.35
2022-09-07T12:52:16.809Z,27.30
2022-09-07T12:55:25.751Z,27.64
2022-09-07T12:58:35.289Z,28.36
2022-09-07T13:01:30.648Z,28.57
2022-09-07T13:04:31.391Z,29.10
2022-09-07T13:07:22.934Z,29.58
2022-09-07T13:10:08.823Z,29.46
2022-09-07T13:12:57.638Z,28.69
2022-09-07T13:15:33.148Z,28.48
2022-09-07T13:18:13.370Z,28.30
2022-09-07T13:20:46.709Z,28.12
2022-09-07T13:23:21.832Z,27.82
2022-09-07T13:26:01.584Z,27.57
2022-09-07T13:28:36.047Z,27.39
2022-09-07T13:31:19.850Z,27.54
2022-09-07T13:33:54.246Z,27.64
2022-09-07T13:36:48.776Z,27.54
2022-09-07T13:39:23.747Z,27.46
2022-09-07T13:41:56.389Z,27.52
2022-09-07T13:44:35.998Z,28.10
2022-09-07T13:47:32.851Z,28.18
2022-09-07T13:50:17.862Z,28.45
2022-09-07T13:53:15.041Z,28.74
2022-09-07T13:55:57.014Z,28.06
2022-09-07T13:58:37.458Z,28.03
2022-09-07T14:01:24.145Z,28.12
2022-09-07T14:04:23.482Z,28.05
2022-09-07T14:07:06.715Z,27.93
2022-09-07T14:09:38.250Z,27.66
2022-09-07T14:12:16.057Z,27.63
2022-09-07T14:14:45.646Z,27.64
2022-09-07T14:17:20.850Z,27.56
2022-09-07T14:20:06.869Z,27.46
2022-09-07T14:22:36.562Z,27.66
2022-09-07T14:25:09.317Z,27.61
2022-09-07T14:27:43.814Z,27.58
2022-09-07T14:30:23.839Z,27.89
2022-09-07T14:33:01.109Z,27.95
2022-09-07T14:35:40.028Z,27.84
2022-09-07T14:41:24.141Z,27.23
2022-09-07T14:44:02.755Z,27.24
2022-09-07T14:46:36.923Z,27.06
2022-09-07T14:49:19.440Z,27.10
2022-09-07T14:51:48.410Z,27.31
2022-09-07T14:54:30.648Z,27.75
2022-09-07T14:57:34.334Z,28.30
2022-09-07T15:00:32.089Z,28.60
2022-09-07T15:03:01.700Z,28.97
2022-09-07T15:05:35.976Z,29.11
2022-09-07T15:08:46.014Z,29.07
2022-09-07T15:11:33.668Z,29.25
2022-09-07T15:14:16.492Z,29.42
2022-09-07T15:17:42.620Z,29.43
2022-09-07T15:19:37.394Z,29.37
2022-09-07T15:22:20.397Z,29.47
2022-09-07T15:24:48.027Z,29.45
2022-09-07T15:27:24.913Z,29.29
2022-09-07T15:29:58.707Z,29.11
2022-09-07T15:32:31.575Z,29.03
2022-09-07T15:34:58.388Z,29.15
2022-09-07T15:40:44.114Z,29.55
2022-09-07T15:43:28.275Z,30.24
2022-09-07T15:48:56.970Z,31.29
2022-09-07T15:54:22.573Z,32.15
2022-09-07T15:59:47.122Z,32.38
2022-09-07T16:05:13.607Z,32.61
2022-09-07T16:10:43.565Z,32.74
2022-09-07T16:13:19.209Z,32.85
2022-09-07T16:15:49.717Z,32.81
2022-09-07T16:18:19.833Z,33.01
2022-09-07T16:20:55.735Z,33.08
2022-09-07T16:23:27.097Z,33.07
2022-09-07T16:26:04.508Z,32.78
2022-09-07T16:28:35.575Z,31.98
2022-09-07T16:31:26.361Z,31.32
2022-09-07T16:33:56.023Z,30.15
2022-09-07T16:36:33.154Z,28.95
2022-09-07T16:39:01.382Z,28.20
2022-09-07T16:41:34.007Z,27.66
2022-09-07T16:44:06.591Z,27.05
2022-09-07T16:46:42.408Z,26.50
2022-09-07T16:49:14.999Z,26.06
2022-09-07T16:51:56.826Z,25.55
2022-09-07T16:54:26.263Z,25.26
2022-09-07T16:56:58.822Z,24.96
2022-09-07T16:59:31.180Z,24.74
2022-09-07T17:02:02.973Z,24.52
2022-09-07T17:04:29.941Z,24.31
2022-09-07T17:06:59.575Z,24.16
2022-09-07T17:09:31.656Z,24.05
2022-09-07T17:12:04.739Z,23.81
2022-09-07T17:14:36.966Z,23.65
2022-09-07T17:17:08.013Z,23.49
2022-09-07T17:19:40.513Z,23.32
2022-09-07T17:22:20.540Z,23.16
2022-09-07T17:24:53.568Z,23.00
2022-09-07T17:28:05.315Z,22.79
2022-09-07T17:30:39.741Z,22.64
2022-09-07T17:33:17.169Z,22.44
2022-09-07T17:36:05.010Z,22.30
2022-09-07T17:41:29.840Z,21.96
2022-09-07T17:44:00.983Z,21.89
2022-09-07T17:46:31.711Z,21.85
2022-09-07T17:49:11.512Z,21.74
2022-09-07T17:51:45.247Z,21.57
2022-09-07T17:54:16.272Z,21.45
2022-09-07T17:56:43.608Z,21.34
2022-09-07T18:02:22.416Z,21.14
2022-09-07T18:04:52.199Z,21.00
2022-09-07T18:07:27.834Z,20.89
2022-09-07T18:09:57.910Z,20.81
2022-09-07T18:12:27.436Z,20.68
2022-09-07T18:14:57.103Z,20.55
2022-09-07T18:17:55.760Z,20.46
2022-09-07T18:20:38.728Z,20.35
2022-09-07T18:23:11.703Z,20.28
2022-09-07T18:25:44.376Z,20.19
2022-09-07T18:31:16.318Z,20.10
2022-09-07T18:33:44.439Z,20.05
2022-09-07T18:36:18.961Z,20.05
2022-09-07T18:38:53.570Z,20.03
2022-09-07T18:41:28.440Z,20.02
2022-09-07T18:44:00.893Z,19.99
2022-09-07T18:46:34.691Z,19.98
2022-09-07T18:49:07.538Z,19.99
2022-09-07T18:54:29.732Z,19.96
2022-09-07T18:57:04.937Z,19.91
2022-09-07T18:59:33.475Z,19.83
2022-09-07T19:02:08.406Z,19.81
2022-09-07T19:07:32.067Z,19.69
2022-09-07T19:10:09.549Z,19.67
2022-09-07T19:12:45.655Z,19.61
2022-09-07T19:15:18.982Z,19.60
2022-09-07T19:17:58.316Z,19.52
2022-09-07T19:20:33.286Z,19.52
2022-09-07T19:23:08.875Z,19.51
2022-09-07T19:25:42.950Z,19.49
2022-09-07T19:28:22.978Z,19.46
2022-09-07T19:30:52.652Z,19.42
2022-09-07T19:33:22.549Z,19.40
2022-09-07T19:35:58.695Z,19.38
2022-09-07T19:38:31.435Z,19.35
2022-09-07T19:41:01.570Z,19.30
2022-09-07T19:43:40.593Z,19.27
2022-09-07T19:46:12.735Z,19.25
2022-09-07T19:48:42.443Z,19.21
2022-09-07T19:51:12.700Z,19.18
2022-09-07T19:53:44.022Z,19.16
2022-09-07T19:56:19.649Z,19.09
2022-09-07T19:58:57.082Z,19.02
2022-09-07T20:01:25.109Z,18.97
2022-09-07T20:04:05.264Z,18.95
2022-09-07T20:06:35.713Z,18.88
2022-09-07T20:09:02.480Z,18.83
2022-09-07T20:11:30.325Z,18.85
2022-09-07T20:14:25.356Z,18.79
2022-09-07T20:16:54.743Z,18.79
2022-09-07T20:19:31.585Z,18.78
2022-09-07T20:22:04.634Z,18.75
2022-09-07T20:24:35.525Z,18.73
2022-09-07T20:27:03.325Z,18.72
2022-09-07T20:29:38.263Z,18.68
2022-09-07T20:32:10.181Z,18.66
2022-09-07T20:34:43.069Z,18.63
2022-09-07T20:37:22.519Z,18.63
2022-09-07T20:39:56.580Z,18.58
2022-09-07T20:42:23.481Z,18.57
2022-09-07T20:44:55.876Z,18.59
2022-09-07T20:47:24.041Z,18.57
2022-09-07T20:49:53.972Z,18.56
2022-09-07T20:52:23.730Z,18.54
2022-09-07T20:54:53.082Z,18.50
2022-09-07T20:57:21.328Z,18.49
2022-09-07T20:59:56.668Z,18.47
2022-09-07T21:02:31.535Z,18.46
2022-09-07T21:05:03.799Z,18.49
2022-09-07T21:07:30.715Z,18.51
2022-09-07T21:10:03.414Z,18.51
2022-09-07T21:12:35.007Z,18.46
2022-09-07T21:15:11.653Z,18.47
2022-09-07T21:17:41.622Z,18.43
2022-09-07T21:20:17.686Z,18.44
2022-09-07T21:22:49.078Z,18.43
2022-09-07T21:25:18.578Z,18.41
2022-09-07T21:27:48.330Z,18.40
2022-09-07T21:30:22.039Z,18.41
2022-09-07T21:33:03.085Z,18.42
2022-09-07T21:35:31.286Z,18.36
2022-09-07T21:38:05.986Z,18.33
2022-09-07T21:40:37.418Z,18.25
2022-09-07T21:43:09.440Z,18.24
2022-09-07T21:45:36.373Z,18.22
2022-09-07T21:48:03.334Z,18.20
2022-09-07T21:50:30.361Z,18.19
2022-09-07T21:52:57.605Z,18.17
2022-09-07T21:55:30.188Z,18.18
2022-09-07T21:58:01.498Z,18.18
2022-09-07T22:00:28.503Z,18.17
2022-09-07T22:03:01.078Z,18.15
2022-09-07T22:05:30.948Z,18.11
2022-09-07T22:07:58.006Z,18.08
2022-09-07T22:10:30.474Z,18.05
2022-09-07T22:13:07.720Z,18.04
2022-09-07T22:15:39.961Z,18.04
2022-09-07T22:18:14.302Z,17.96
2022-09-07T22:20:42.425Z,17.90
2022-09-07T22:23:12.426Z,17.88
2022-09-07T22:25:42.797Z,17.85
2022-09-07T22:28:15.464Z,17.81
2022-09-07T22:30:42.505Z,17.77
2022-09-07T22:33:09.543Z,17.74
2022-09-07T22:35:51.472Z,17.76
2022-09-07T22:38:24.604Z,17.73
2022-09-07T22:40:53.062Z,17.69
2022-09-07T22:43:23.280Z,17.68
2022-09-07T22:45:55.232Z,17.70
2022-09-07T22:48:27.230Z,17.69
2022-09-07T22:51:09.227Z,17.70
2022-09-07T22:53:46.839Z,17.74
2022-09-07T22:56:21.968Z,17.75
2022-09-07T22:58:54.701Z,17.77
2022-09-07T23:01:25.569Z,17.75
2022-09-07T23:03:59.794Z,17.75
2022-09-07T23:06:38.178Z,17.72
2022-09-07T23:09:11.124Z,17.69
2022-09-07T23:11:50.915Z,17.67
2022-09-07T23:14:27.624Z,17.64
2022-09-07T23:16:58.913Z,17.56
2022-09-07T23:19:28.932Z,17.57
2022-09-07T23:21:55.950Z,17.62
2022-09-07T23:24:28.435Z,17.64
2022-09-07T23:27:16.631Z,17.60
2022-09-07T23:29:52.295Z,17.68
2022-09-07T23:32:22.415Z,17.65
2022-09-07T23:34:54.197Z,17.65
2022-09-07T23:37:22.141Z,17.54
2022-09-07T23:39:49.165Z,17.46
2022-09-07T23:42:24.868Z,17.43
2022-09-07T23:44:58.534Z,17.39
2022-09-07T23:47:26.621Z,17.39
2022-09-07T23:49:56.234Z,17.38
2022-09-07T23:52:23.189Z,17.33
2022-09-07T23:54:50.854Z,17.25
2022-09-07T23:57:20.967Z,17.23
2022-09-07T23:59:54.061Z,17.13
